Latest Weather Observations for Pearce

IDW60901

Issued at 8:21 am WST Saturday 21 July 2018 (issued every 10 minutes, with the page automatically refreshed every 10 minutes)

About weather observations | Map of Perth area stations | Latest observations for Perth area | Other Formats
Station Details ID: 009053 Name: PEARCE RAAF Lat: -31.67 Lon: 116.02 Height: 40.0 m
Data from the previous 72 hours. | See also: Recent months at Pearce
Date/Time
WST
Temp
°C
App
Temp
°C
Dew
Point
°C
Rel
Hum
%
Delta-T
°C
Wind Press
QNH
hPa
Press
MSL
hPa
Rain since
9am
mm
Dir  Spd
km/h
Gust
km/h
Spd
kts
Gust
kts
21/08:00am 15.7 12.4 14.1 90 0.9 N 24 32 13 17 1008.4 1008.4 1.8
21/07:30am 15.0 11.9 13.5 91 0.8 N 22 30 12 16 1008.6 1008.6 1.8
21/07:00am 15.0 11.5 13.5 91 0.8 N 24 32 13 17 1008.7 1008.7 1.8
21/06:30am 15.0 12.5 13.5 91 0.8 NNW 19 28 10 15 1008.7 1008.7 1.8
21/06:00am 15.0 11.9 13.4 90 0.9 N 22 28 12 15 1008.8 1008.8 1.8
21/05:30am 15.1 12.1 13.6 91 0.8 N 22 32 12 17 1008.9 1008.9 1.8
21/05:00am 14.8 12.1 13.5 92 0.7 N 20 28 11 15 1008.9 1008.9 1.6
21/04:30am 14.6 11.9 13.5 93 0.6 N 20 26 11 14 1008.9 1008.9 1.6
21/04:00am 14.9 11.6 14.1 95 0.5 N 24 30 13 16 1009.3 1009.3 1.6
21/03:43am 14.8 11.9 14.0 95 0.5 N 22 28 12 15 1009.6 1009.6 1.6
21/03:30am 14.8 11.1 14.0 95 0.5 N 26 35 14 19 1009.6 1009.6 1.6
21/03:27am 14.8 11.1 14.0 95 0.5 N 26 35 14 19 1009.7 1009.7 1.6
21/03:19am 14.7 11.0 13.9 95 0.4 N 26 33 14 18 1009.8 1009.8 1.6
21/03:18am 14.7 11.4 13.9 95 0.4 N 24 33 13 18 1009.8 1009.8 1.6
21/03:00am 14.7 11.4 13.9 95 0.5 N 24 32 13 17 1010.0 1010.0 1.6
21/02:56am 14.7 11.4 13.9 95 0.4 N 24 32 13 17 1010.0 1010.0 1.6
21/02:30am 14.5 11.9 13.7 95 0.4 N 20 37 11 20 1010.2 1010.2 1.6
21/02:29am 14.5 11.9 13.7 95 0.4 N 20 26 11 14 1010.2 1010.2 1.6
21/02:00am 14.4 11.7 13.6 95 0.4 NNW 20 32 11 17 1010.6 1010.6 1.4
21/01:30am 14.2 11.6 13.2 94 0.6 N 19 24 10 13 1010.6 1010.6 0.6
21/01:00am 14.2 11.9 13.1 93 0.6 NNW 17 22 9 12 1011.1 1011.1 0.4
21/12:31am 14.4 12.1 13.0 91 0.8 NNW 17 24 9 13 1011.5 1011.5 0.0
21/12:30am 14.4 12.5 13.0 91 0.8 NNW 15 24 8 13 1011.6 1011.6 0.0
21/12:25am 14.4 12.9 13.0 91 0.8 NNW 13 17 7 9 1011.6 1011.6 0.0
21/12:18am 14.4 12.9 13.0 91 0.8 NNW 13 17 7 9 1011.6 1011.6 0.0
21/12:00am 14.5 11.6 12.9 90 0.9 N 20 28 11 15 1011.8 1011.8 0.0
 
Date/Time
WST
Temp
°C
App
Temp
°C
Dew
Point
°C
Rel
Hum
%
Delta-T
°C
Wind Press
QNH
hPa
Press
MSL
hPa
Rain since
9am
mm
Dir  Spd
km/h
Gust
km/h
Spd
kts
Gust
kts
20/11:55pm 14.5 10.9 12.9 90 0.9 N 24 35 13 19 1011.8 1011.8 0.0
20/11:30pm 15.1 10.9 12.4 84 1.5 NNW 26 33 14 18 1012.1 1012.1 0.0
20/11:14pm 15.3 11.8 12.1 81 1.7 N 22 35 12 19 1012.4 1012.4 0.0
20/11:02pm 14.9 10.9 11.9 82 1.6 NNW 24 32 13 17 1012.5 1012.5 0.0
20/11:00pm 14.9 11.3 11.9 82 1.6 NNW 22 32 12 17 1012.6 1012.6 0.0
20/10:30pm 16.0 12.6 11.2 73 2.6 N 20 28 11 15 1012.5 1012.5 0.0
20/10:00pm 16.1 12.8 11.5 74 2.5 N 20 28 11 15 1012.9 1012.9 0.0
20/09:30pm 15.8 12.5 11.6 76 2.3 N 20 24 11 13 1012.9 1012.9 0.0
20/09:00pm 14.9 12.6 11.7 81 1.7 N 15 19 8 10 1013.2 1013.2 0.0
20/08:30pm 14.2 11.4 11.2 82 1.6 N 17 22 9 12 1013.5 1013.5 0.0
20/08:00pm 14.0 11.5 11.2 83 1.5 N 15 17 8 9 1013.7 1013.7 0.0
20/07:30pm 14.3 12.1 10.9 80 1.8 N 13 17 7 9 1013.6 1013.6 0.0
20/07:00pm 14.0 12.1 10.6 80 1.8 N 11 13 6 7 1013.6 1013.6 0.0
20/06:30pm 14.7 12.9 10.9 78 2.0 NNW 11 13 6 7 1013.5 1013.5 0.0
20/06:00pm 15.5 13.1 11.3 76 2.3 N 15 17 8 9 1013.3 1013.3 0.0
20/05:30pm 16.5 13.1 11.2 71 2.9 NNW 20 28 11 15 1013.4 1013.4 0.0
20/05:00pm 18.3 13.7 10.9 62 4.0 NNW 26 35 14 19 1013.4 1013.4 0.0
20/04:30pm 18.3 14.3 10.4 60 4.2 NW 22 30 12 16 1013.4 1013.4 0.0
20/04:00pm 18.5 13.9 9.6 56 4.7 NW 24 32 13 17 1013.4 1013.4 0.0
20/03:30pm 18.9 13.3 8.8 52 5.3 NW 28 37 15 20 1013.3 1013.3 0.0
20/03:00pm 19.2 13.4 9.4 53 5.2 NW 30 39 16 21 1013.2 1013.2 0.0
20/02:30pm 20.0 15.2 8.7 48 5.9 NW 24 35 13 19 1013.3 1013.3 0.0
20/02:00pm 20.2 14.9 9.7 51 5.6 NW 28 37 15 20 1013.2 1013.2 0.0
20/01:30pm 19.2 14.8 8.8 51 5.4 NNW 22 30 12 16 1013.7 1013.7 0.0
20/01:00pm 19.7 15.2 8.7 49 5.8 NNW 22 30 12 16 1014.0 1014.0 0.0
20/12:30pm 19.2 12.9 7.3 46 6.0 NNW 30 35 16 19 1014.5 1014.5 0.0
20/12:00pm 18.7 12.4 7.2 47 5.8 N 30 39 16 21 1015.2 1015.2 0.0
20/11:30am 18.3 12.5 8.0 51 5.3 NNW 28 37 15 20 1015.9 1015.9 0.0
20/11:00am 17.5 12.4 7.8 53 4.9 N 24 28 13 15 1016.4 1016.4 0.0
20/10:30am 16.8 12.1 7.7 55 4.6 N 22 28 12 15 1016.9 1016.9 0.0
20/10:00am 16.0 11.9 7.7 58 4.2 N 19 24 10 13 1017.5 1017.5 0.0
20/09:30am 14.8 11.8 7.6 62 3.6 N 13 19 7 10 1017.7 1017.7 0.0
20/09:00am 13.6 10.9 7.4 66 3.0 N 11 15 6 8 1017.5 1017.5 0.0
20/08:30am 12.0 9.6 6.9 71 2.4 NNW 9 13 5 7 1017.5 1017.5 0.0
20/08:00am 11.4 8.5 6.3 71 2.4 N 11 17 6 9 1017.6 1017.6 0.0
20/07:30am 10.6 8.1 6.4 75 2.0 NNE 9 17 5 9 1017.5 1017.5 0.0
20/07:14am 9.8 7.5 5.8 76 1.8 N 7 11 4 6 1017.6 1017.6 0.0
20/07:00am 10.9 8.3 5.9 71 2.3 NE 9 19 5 10 1017.6 1017.6 0.0
20/06:30am 9.9 6.5 6.1 77 1.8 N 13 15 7 8 1017.5 1017.5 0.0
20/06:00am 10.3 6.6 6.3 76 1.9 NNE 15 20 8 11 1017.5 1017.5 0.0
20/05:30am 9.7 7.1 6.2 79 1.6 NNE 9 15 5 8 1017.7 1017.7 0.0
20/05:00am 9.3 7.0 5.7 78 1.6 NNE 7 13 4 7 1017.8 1017.8 0.0
20/04:30am 9.8 7.6 6.3 79 1.6 N 7 11 4 6 1017.9 1017.9 0.0
20/04:00am 9.6 7.4 6.1 79 1.6 NNE 7 11 4 6 1018.0 1018.0 0.0
20/03:30am 9.5 7.4 5.9 78 1.7 N 6 7 3 4 1018.2 1018.2 0.0
20/03:00am 10.8 8.9 6.9 77 1.8 NNE 6 11 3 6 1018.5 1018.5 0.0
20/02:30am 9.9 7.9 6.3 78 1.7 N 6 7 3 4 1019.0 1019.0 0.0
20/02:00am 10.5 9.4 7.0 79 1.7 SSW 2 9 1 5 1019.1 1019.1 0.0
20/01:30am 10.8 8.8 6.2 73 2.2 N 6 13 3 7 1019.5 1019.5 0.0
20/01:00am 11.9 7.6 6.8 71 2.4 ENE 19 28 10 15 1019.6 1019.6 0.0
20/12:30am 12.0 8.0 6.7 70 2.5 ENE 17 24 9 13 1019.6 1019.6 0.0
20/12:00am 12.0 8.8 6.7 70 2.5 ENE 13 22 7 12 1020.1 1020.1 0.0
 
Date/Time
WST
Temp
°C
App
Temp
°C
Dew
Point
°C
Rel
Hum
%
Delta-T
°C
Wind Press
QNH
hPa
Press
MSL
hPa
Rain since
9am
mm
Dir  Spd
km/h
Gust
km/h
Spd
kts
Gust
kts
19/11:30pm 12.1 9.3 7.0 71 2.5 ENE 11 17 6 9 1020.7 1020.7 0.0
19/11:00pm 10.0 7.9 6.5 79 1.6 WSW 7 9 4 5 1021.1 1021.1 0.0
19/10:30pm 9.9 7.9 6.3 78 1.7 SSE 6 9 3 5 1021.4 1021.4 0.0
19/10:00pm 12.0 9.6 6.9 71 2.4 ENE 9 15 5 8 1021.4 1021.4 0.0
19/09:30pm 11.9 9.2 7.4 74 2.2 ENE 11 15 6 8 1021.6 1021.6 0.0
19/09:00pm 11.9 9.6 7.4 74 2.2 ENE 9 15 5 8 1021.9 1021.9 0.0
19/08:30pm 11.8 9.1 7.5 75 2.1 ENE 11 17 6 9 1022.0 1022.0 0.0
19/08:00pm 10.1 8.4 6.1 76 1.8 NE 4 9 2 5 1022.2 1022.2 0.0
19/07:30pm 12.4 10.5 7.5 72 2.4 E 7 9 4 5 1021.9 1021.9 0.0
19/07:00pm 12.5 11.6 7.8 73 2.3 NNE 2 7 1 4 1022.0 1022.0 0.0
19/06:30pm 13.3 11.0 7.3 67 2.9 E 9 11 5 6 1022.0 1022.0 0.0
19/06:00pm 14.3 12.3 7.1 62 3.5 E 7 13 4 7 1021.5 1021.5 0.0
19/05:30pm 15.0 12.8 7.8 62 3.6 NNE 9 13 5 7 1021.2 1021.2 0.0
19/05:00pm 16.5 14.1 6.9 53 4.7 NNE 9 13 5 7 1021.1 1021.1 0.0
19/04:30pm 17.1 14.8 5.7 47 5.5 W 7 13 4 7 1021.4 1021.4 0.0
19/04:00pm 18.5 17.2 6.0 44 6.1 NNW 2 6 1 3 1021.4 1021.4 0.0
19/03:30pm 17.8 15.2 6.3 47 5.7 NNW 9 17 5 9 1021.4 1021.4 0.0
19/03:00pm 17.9 15.7 6.4 47 5.7 NW 7 11 4 6 1022.1 1022.1 0.0
19/02:30pm 16.9 14.7 6.4 50 5.2 ESE 7 11 4 6 1022.2 1022.2 0.0
19/02:00pm 16.9 14.9 7.3 53 4.8 E 7 11 4 6 1022.0 1022.0 0.0
19/01:30pm 16.7 14.4 7.6 55 4.6 E 9 15 5 8 1022.3 1022.3 0.0
19/01:00pm 16.9 13.9 7.8 55 4.6 E 13 20 7 11 1022.5 1022.5 0.0
19/12:30pm 16.6 12.9 7.8 56 4.4 ENE 17 22 9 12 1022.7 1022.7 0.0
19/12:00pm 15.9 12.3 8.2 60 3.9 ENE 17 22 9 12 1023.6 1023.6 0.0
19/11:30am 15.6 12.1 8.6 63 3.6 ENE 17 22 9 12 1023.9 1023.9 0.0
19/11:00am 15.2 12.3 9.6 69 2.9 ENE 15 20 8 11 1024.1 1024.1 0.0
19/10:30am 15.2 12.0 10.0 71 2.7 E 17 26 9 14 1024.2 1024.2 0.0
19/10:00am 13.8 10.6 9.8 77 2.1 ENE 17 24 9 13 1024.4 1024.4 0.0
19/09:30am 13.4 10.6 10.0 80 1.8 ENE 15 20 8 11 1024.3 1024.3 0.0
19/09:00am 12.5 11.1 9.5 82 1.5 N 7 11 4 6 1024.4 1024.4 2.0
19/08:30am 12.4 11.9 9.4 82 1.5 ESE 2 7 1 4 1024.2 1024.2 2.0
19/08:00am 11.6 10.5 8.6 82 1.5 ESE 4 9 2 5 1023.9 1023.9 2.0
19/07:30am 11.4 9.4 8.6 83 1.4 E 9 17 5 9 1023.7 1023.7 2.0
19/07:00am 11.1 10.1 8.8 86 1.1 E 4 9 2 5 1023.4 1023.4 2.0
19/06:30am 10.6 9.1 8.4 86 1.1 ENE 6 9 3 5 1022.8 1022.8 2.0
19/06:00am 11.1 10.9 9.2 88 0.9 CALM 0 6 0 3 1022.4 1022.4 2.0
19/05:30am 11.7 10.0 9.8 88 1.0 ENE 9 15 5 8 1022.2 1022.2 2.0
19/05:00am 11.6 10.4 10.2 91 0.7 E 7 9 4 5 1022.3 1022.3 2.0
19/04:30am 11.7 10.1 10.1 90 0.8 SE 9 13 5 7 1022.5 1022.5 2.0
19/04:00am 12.0 10.1 10.4 90 0.8 SSE 11 15 6 8 1022.6 1022.6 2.0
19/03:30am 12.2 10.6 10.3 88 1.0 SSW 9 13 5 7 1022.3 1022.3 2.0
19/03:00am 12.2 11.2 10.3 88 1.0 NW 6 9 3 5 1021.8 1021.8 2.0
19/02:30am 12.4 11.4 10.3 87 1.1 ESE 6 9 3 5 1021.5 1021.5 2.0
19/02:00am 12.9 10.7 10.8 87 1.1 E 13 19 7 10 1021.1 1021.1 2.0
19/01:30am 12.6 11.7 11.3 92 0.7 ESE 7 11 4 6 1021.0 1021.0 2.0
19/01:08am 12.4 10.0 11.5 94 0.5 SE 15 20 8 11 1021.1 1021.1 2.0
19/01:04am 12.4 9.6 11.5 94 0.5 SE 17 20 9 11 1021.2 1021.2 1.8
19/01:00am 12.4 9.6 11.5 94 0.5 SSE 17 20 9 11 1021.3 1021.3 1.8
19/12:44am 12.5 10.6 11.7 95 0.4 SSW 13 15 7 8 1021.8 1021.8 1.8
19/12:30am 12.6 11.5 11.8 95 0.4 SSW 9 11 5 6 1021.9 1021.9 1.8
19/12:00am 12.6 13.1 11.7 94 0.5 CALM 0 0 0 0 1021.8 1021.8 1.8
 
Date/Time
WST
Temp
°C
App
Temp
°C
Dew
Point
°C
Rel
Hum
%
Delta-T
°C
Wind Press
QNH
hPa
Press
MSL
hPa
Rain since
9am
mm
Dir  Spd
km/h
Gust
km/h
Spd
kts
Gust
kts
18/11:30pm 12.6 12.4 11.7 94 0.5 W 4 9 2 5 1021.8 1021.8 1.8
18/11:09pm 12.7 12.5 11.8 94 0.5 N 4 7 2 4 1021.6 1021.6 1.6
18/11:00pm 12.7 11.9 11.8 94 0.5 N 7 9 4 5 1021.5 1021.5 1.6
18/10:30pm 12.7 12.5 11.8 94 0.5 NNE 4 7 2 4 1021.4 1021.4 1.6
18/10:00pm 12.5 10.9 11.7 95 0.4 N 11 13 6 7 1021.2 1021.2 1.6
18/09:30pm 12.5 11.3 11.7 95 0.4 NNE 9 9 5 5 1021.2 1021.2 1.6
18/09:00pm 12.5 12.7 11.7 95 0.4 N 2 7 1 4 1020.9 1020.9 1.6
18/08:30pm 12.5 11.3 11.6 94 0.5 N 9 11 5 6 1020.6 1020.6 1.6
18/08:00pm 13.0 11.6 12.1 94 0.5 N 11 13 6 7 1020.4 1020.4 1.6
18/07:30pm 13.2 11.8 12.1 93 0.6 N 11 13 6 7 1020.1 1020.1 1.6
18/07:00pm 13.6 12.3 12.5 93 0.6 N 11 15 6 8 1020.0 1020.0 1.6
18/06:55pm 13.6 12.7 12.5 93 0.6 N 9 13 5 7 1020.0 1020.0 1.6
18/06:46pm 13.6 12.7 12.5 93 0.6 NNW 9 11 5 6 1020.0 1020.0 1.6
18/06:30pm 13.6 13.2 12.3 92 0.7 NNW 6 7 3 4 1019.8 1019.8 1.4
18/06:13pm 13.7 13.3 12.4 92 0.7 NW 6 11 3 6 1019.6 1019.6 1.4
18/06:03pm 13.8 12.8 12.4 91 0.8 WNW 9 13 5 7 1019.5 1019.5 1.4
18/06:00pm 13.8 12.8 12.4 91 0.8 WNW 9 13 5 7 1019.6 1019.6 1.4
18/05:30pm 13.9 11.8 12.3 90 0.9 WNW 15 20 8 11 1019.3 1019.3 1.2
18/05:00pm 14.3 13.4 12.7 90 0.9 WNW 9 17 5 9 1019.0 1019.0 1.2
18/04:30pm 14.3 14.1 13.0 92 0.7 WSW 6 9 3 5 1018.9 1018.9 1.2
18/04:17pm 13.8 12.1 12.5 92 0.7 SW 13 19 7 10 1018.9 1018.9 1.2
18/04:00pm 14.0 10.6 12.6 91 0.8 WSW 22 32 12 17 1019.0 1019.0 0.6
18/03:56pm 14.2 10.5 12.6 90 0.9 SW 24 33 13 18 1019.0 1019.0 0.4
18/03:45pm 14.6 10.5 12.6 88 1.1 SW 26 33 14 18 1018.7 1018.7 0.2
18/03:32pm 15.2 11.7 12.2 82 1.6 WSW 22 35 12 19 1018.6 1018.6 0.2
18/03:30pm 15.4 11.5 12.0 80 1.8 WSW 24 35 13 19 1018.6 1018.6 0.2
18/03:00pm 17.6 12.8 10.2 62 3.9 W 26 33 14 18 1018.1 1018.1 0.0
18/02:30pm 18.4 13.9 10.0 58 4.5 W 24 35 13 19 1017.9 1017.9 0.0
18/02:00pm 19.0 13.9 10.6 58 4.5 W 28 33 15 18 1017.7 1017.7 0.0
18/01:30pm 18.8 14.5 10.6 59 4.4 W 24 32 13 17 1017.8 1017.8 0.0
18/01:00pm 18.5 14.4 10.1 58 4.5 W 22 32 12 17 1018.0 1018.0 0.0
18/12:30pm 18.1 13.6 10.2 60 4.2 W 24 33 13 18 1018.3 1018.3 0.0
18/12:00pm 17.5 12.3 11.5 68 3.3 W 30 39 16 21 1018.6 1018.6 0.0
18/11:30am 17.3 13.0 10.7 65 3.5 WNW 24 35 13 19 1018.7 1018.7 0.0
18/11:00am 17.2 13.6 8.4 56 4.5 W 17 30 9 16 1018.8 1018.8 0.0
18/10:30am 16.5 14.0 12.3 76 2.3 NW 17 20 9 11 1019.0 1019.0 0.0
18/10:00am 15.4 11.8 11.8 79 1.9 NNW 22 26 12 14 1019.0 1019.0 0.0
18/09:30am 15.6 12.2 11.2 75 2.4 WNW 20 26 11 14 1018.8 1018.8 0.0
18/09:00am 14.6 12.0 10.6 77 2.1 NW 15 20 8 11 1018.6 1018.6 0.0
18/08:30am 14.3 12.8 11.8 85 1.3 NNW 11 15 6 8 1018.3 1018.3 0.0

Latest Capital City Observations: Canberra | Sydney | Melbourne | Brisbane | Adelaide | Perth | Hobart | Darwin

Other Formats:

Comma delimited format used in spreadsheet applications
http://www.bom.gov.au/fwo/IDW60901/IDW60901.94612.axf

JavaScript Object Notation format (JSON) in row-major order
http://www.bom.gov.au/fwo/IDW60901/IDW60901.94612.json